sensor_id;sensor_type;location;lat;lon;timestamp;P1;durP1;ratioP1;P2;durP2;ratioP2
19173;SDS011;9719;49.322;8.536;2023-09-08T00:04:58;2.60;;;2.40;;
19173;SDS011;9719;49.322;8.536;2023-09-08T00:10:00;3.53;;;1.98;;
19173;SDS011;9719;49.322;8.536;2023-09-08T00:15:02;2.40;;;2.20;;
19173;SDS011;9719;49.322;8.536;2023-09-08T00:20:06;3.25;;;2.13;;
19173;SDS011;9719;49.322;8.536;2023-09-08T00:25:09;2.92;;;2.67;;
19173;SDS011;9719;49.322;8.536;2023-09-08T00:30:11;3.40;;;2.08;;
19173;SDS011;9719;49.322;8.536;2023-09-08T00:35:15;1.95;;;1.52;;
19173;SDS011;9719;49.322;8.536;2023-09-08T00:40:17;2.58;;;2.35;;
19173;SDS011;9719;49.322;8.536;2023-09-08T00:45:18;3.28;;;2.00;;
19173;SDS011;9719;49.322;8.536;2023-09-08T00:50:22;4.15;;;2.67;;
19173;SDS011;9719;49.322;8.536;2023-09-08T00:55:24;3.58;;;2.80;;
19173;SDS011;9719;49.322;8.536;2023-09-08T01:00:26;1.92;;;1.83;;
19173;SDS011;9719;49.322;8.536;2023-09-08T01:05:29;3.60;;;2.22;;
19173;SDS011;9719;49.322;8.536;2023-09-08T01:10:31;4.18;;;2.60;;
19173;SDS011;9719;49.322;8.536;2023-09-08T01:15:32;1.77;;;1.67;;
19173;SDS011;9719;49.322;8.536;2023-09-08T01:20:41;2.25;;;2.00;;
19173;SDS011;9719;49.322;8.536;2023-09-08T01:25:59;2.42;;;2.22;;
19173;SDS011;9719;49.322;8.536;2023-09-08T01:31:05;3.08;;;1.90;;
19173;SDS011;9719;49.322;8.536;2023-09-08T01:36:07;2.90;;;1.80;;
19173;SDS011;9719;49.322;8.536;2023-09-08T01:41:10;3.95;;;2.58;;
19173;SDS011;9719;49.322;8.536;2023-09-08T01:46:12;2.10;;;1.90;;
19173;SDS011;9719;49.322;8.536;2023-09-08T01:51:14;3.63;;;2.38;;
19173;SDS011;9719;49.322;8.536;2023-09-08T01:56:17;2.20;;;1.75;;
19173;SDS011;9719;49.322;8.536;2023-09-08T02:01:19;2.80;;;2.60;;
19173;SDS011;9719;49.322;8.536;2023-09-08T02:06:20;2.88;;;2.33;;
19173;SDS011;9719;49.322;8.536;2023-09-08T02:11:24;2.30;;;2.20;;
19173;SDS011;9719;49.322;8.536;2023-09-08T02:16:25;2.40;;;2.17;;
19173;SDS011;9719;49.322;8.536;2023-09-08T02:21:28;2.95;;;2.75;;
19173;SDS011;9719;49.322;8.536;2023-09-08T02:26:31;4.97;;;2.78;;
19173;SDS011;9719;49.322;8.536;2023-09-08T02:31:33;2.55;;;2.03;;
19173;SDS011;9719;49.322;8.536;2023-09-08T02:36:35;2.42;;;2.10;;
19173;SDS011;9719;49.322;8.536;2023-09-08T02:41:38;2.35;;;2.15;;
19173;SDS011;9719;49.322;8.536;2023-09-08T02:46:40;1.98;;;1.73;;
19173;SDS011;9719;49.322;8.536;2023-09-08T02:51:42;2.55;;;2.25;;
19173;SDS011;9719;49.322;8.536;2023-09-08T02:56:45;3.28;;;2.80;;
19173;SDS011;9719;49.322;8.536;2023-09-08T03:01:46;2.42;;;2.33;;
19173;SDS011;9719;49.322;8.536;2023-09-08T03:06:48;2.13;;;2.03;;
19173;SDS011;9719;49.322;8.536;2023-09-08T03:11:51;4.80;;;2.80;;
19173;SDS011;9719;49.322;8.536;2023-09-08T03:16:53;2.75;;;1.90;;
19173;SDS011;9719;49.322;8.536;2023-09-08T03:21:54;3.90;;;2.83;;
19173;SDS011;9719;49.322;8.536;2023-09-08T03:26:57;2.05;;;1.90;;
19173;SDS011;9719;49.322;8.536;2023-09-08T03:31:59;3.33;;;2.28;;
19173;SDS011;9719;49.322;8.536;2023-09-08T03:37:01;4.07;;;2.85;;
19173;SDS011;9719;49.322;8.536;2023-09-08T03:42:04;2.88;;;2.60;;
19173;SDS011;9719;49.322;8.536;2023-09-08T03:47:06;2.53;;;2.33;;
19173;SDS011;9719;49.322;8.536;2023-09-08T03:52:09;2.45;;;2.25;;
19173;SDS011;9719;49.322;8.536;2023-09-08T03:57:13;2.92;;;2.72;;
19173;SDS011;9719;49.322;8.536;2023-09-08T04:02:15;4.00;;;3.00;;
19173;SDS011;9719;49.322;8.536;2023-09-08T04:07:17;3.40;;;3.17;;
19173;SDS011;9719;49.322;8.536;2023-09-08T04:12:20;3.33;;;3.03;;
19173;SDS011;9719;49.322;8.536;2023-09-08T04:17:21;2.92;;;2.55;;
19173;SDS011;9719;49.322;8.536;2023-09-08T04:22:23;3.38;;;3.08;;
19173;SDS011;9719;49.322;8.536;2023-09-08T04:27:26;2.88;;;2.65;;
19173;SDS011;9719;49.322;8.536;2023-09-08T04:32:28;3.35;;;2.95;;
19173;SDS011;9719;49.322;8.536;2023-09-08T04:37:29;3.15;;;2.85;;
19173;SDS011;9719;49.322;8.536;2023-09-08T04:42:32;2.97;;;2.78;;
19173;SDS011;9719;49.322;8.536;2023-09-08T04:47:34;3.47;;;2.97;;
19173;SDS011;9719;49.322;8.536;2023-09-08T04:52:36;5.03;;;3.00;;
19173;SDS011;9719;49.322;8.536;2023-09-08T04:57:39;3.47;;;3.25;;
19173;SDS011;9719;49.322;8.536;2023-09-08T05:02:41;2.90;;;2.70;;
19173;SDS011;9719;49.322;8.536;2023-09-08T05:07:42;3.03;;;2.70;;
19173;SDS011;9719;49.322;8.536;2023-09-08T05:12:46;3.60;;;3.30;;
19173;SDS011;9719;49.322;8.536;2023-09-08T05:17:49;3.95;;;2.40;;
19173;SDS011;9719;49.322;8.536;2023-09-08T05:22:51;6.22;;;3.38;;
19173;SDS011;9719;49.322;8.536;2023-09-08T05:27:54;4.03;;;3.25;;
19173;SDS011;9719;49.322;8.536;2023-09-08T05:32:55;4.38;;;3.30;;
19173;SDS011;9719;49.322;8.536;2023-09-08T05:37:57;3.85;;;3.55;;
19173;SDS011;9719;49.322;8.536;2023-09-08T05:43:00;4.05;;;3.75;;
19173;SDS011;9719;49.322;8.536;2023-09-08T05:48:02;6.72;;;3.72;;
19173;SDS011;9719;49.322;8.536;2023-09-08T05:53:04;4.90;;;3.42;;
19173;SDS011;9719;49.322;8.536;2023-09-08T05:58:07;3.42;;;3.05;;
19173;SDS011;9719;49.322;8.536;2023-09-08T06:03:09;5.80;;;3.65;;
19173;SDS011;9719;49.322;8.536;2023-09-08T06:08:11;3.50;;;3.00;;
19173;SDS011;9719;49.322;8.536;2023-09-08T06:13:14;5.10;;;4.05;;
19173;SDS011;9719;49.322;8.536;2023-09-08T06:18:15;5.68;;;3.85;;
19173;SDS011;9719;49.322;8.536;2023-09-08T06:23:19;6.45;;;3.55;;
19173;SDS011;9719;49.322;8.536;2023-09-08T06:28:22;4.78;;;4.38;;
19173;SDS011;9719;49.322;8.536;2023-09-08T06:33:24;3.58;;;3.28;;
19173;SDS011;9719;49.322;8.536;2023-09-08T06:38:26;4.47;;;3.95;;
19173;SDS011;9719;49.322;8.536;2023-09-08T06:43:32;4.75;;;4.10;;
19173;SDS011;9719;49.322;8.536;2023-09-08T06:48:34;5.05;;;3.75;;
19173;SDS011;9719;49.322;8.536;2023-09-08T06:53:36;6.65;;;3.88;;
19173;SDS011;9719;49.322;8.536;2023-09-08T06:58:39;3.50;;;3.20;;
19173;SDS011;9719;49.322;8.536;2023-09-08T07:03:41;4.63;;;4.03;;
19173;SDS011;9719;49.322;8.536;2023-09-08T07:08:43;5.88;;;3.83;;
19173;SDS011;9719;49.322;8.536;2023-09-08T07:13:46;5.25;;;3.47;;
19173;SDS011;9719;49.322;8.536;2023-09-08T07:18:48;3.17;;;2.63;;
19173;SDS011;9719;49.322;8.536;2023-09-08T07:23:50;3.72;;;3.00;;
19173;SDS011;9719;49.322;8.536;2023-09-08T07:28:55;3.10;;;2.70;;
19173;SDS011;9719;49.322;8.536;2023-09-08T07:33:56;2.28;;;2.08;;
19173;SDS011;9719;49.322;8.536;2023-09-08T07:38:58;4.82;;;2.20;;
19173;SDS011;9719;49.322;8.536;2023-09-08T07:44:01;2.28;;;2.08;;
19173;SDS011;9719;49.322;8.536;2023-09-08T07:49:03;6.85;;;2.10;;
19173;SDS011;9719;49.322;8.536;2023-09-08T07:54:05;3.83;;;2.55;;
19173;SDS011;9719;49.322;8.536;2023-09-08T07:59:08;3.50;;;2.53;;
19173;SDS011;9719;49.322;8.536;2023-09-08T08:04:10;2.90;;;2.70;;
19173;SDS011;9719;49.322;8.536;2023-09-08T08:09:12;4.47;;;2.75;;
19173;SDS011;9719;49.322;8.536;2023-09-08T08:14:15;2.35;;;2.15;;
19173;SDS011;9719;49.322;8.536;2023-09-08T08:19:17;6.93;;;1.92;;
19173;SDS011;9719;49.322;8.536;2023-09-08T08:24:18;5.22;;;2.08;;
19173;SDS011;9719;49.322;8.536;2023-09-08T08:29:22;2.53;;;2.33;;
19173;SDS011;9719;49.322;8.536;2023-09-08T08:34:23;2.35;;;2.15;;
19173;SDS011;9719;49.322;8.536;2023-09-08T08:39:25;3.33;;;2.65;;
19173;SDS011;9719;49.322;8.536;2023-09-08T08:44:28;2.08;;;1.88;;
19173;SDS011;9719;49.322;8.536;2023-09-08T08:49:30;2.33;;;2.13;;
19173;SDS011;9719;49.322;8.536;2023-09-08T08:54:33;5.07;;;2.60;;
19173;SDS011;9719;49.322;8.536;2023-09-08T08:59:37;3.28;;;2.03;;
19173;SDS011;9719;49.322;8.536;2023-09-08T09:04:39;3.90;;;2.35;;
19173;SDS011;9719;49.322;8.536;2023-09-08T09:09:41;3.58;;;2.90;;
19173;SDS011;9719;49.322;8.536;2023-09-08T09:14:46;3.55;;;2.10;;
19173;SDS011;9719;49.322;8.536;2023-09-08T09:19:48;3.03;;;2.17;;
19173;SDS011;9719;49.322;8.536;2023-09-08T09:24:49;2.65;;;2.45;;
19173;SDS011;9719;49.322;8.536;2023-09-08T09:29:52;2.35;;;2.15;;
19173;SDS011;9719;49.322;8.536;2023-09-08T09:34:54;3.25;;;2.08;;
19173;SDS011;9719;49.322;8.536;2023-09-08T09:39:56;4.18;;;2.88;;
19173;SDS011;9719;49.322;8.536;2023-09-08T09:45:01;4.03;;;2.40;;
19173;SDS011;9719;49.322;8.536;2023-09-08T09:50:03;3.47;;;2.03;;
19173;SDS011;9719;49.322;8.536;2023-09-08T09:55:07;5.63;;;2.55;;
19173;SDS011;9719;49.322;8.536;2023-09-08T10:00:11;2.67;;;2.47;;
19173;SDS011;9719;49.322;8.536;2023-09-08T10:05:15;3.70;;;2.65;;
19173;SDS011;9719;49.322;8.536;2023-09-08T10:10:17;3.25;;;2.40;;
19173;SDS011;9719;49.322;8.536;2023-09-08T10:15:21;2.47;;;2.13;;
19173;SDS011;9719;49.322;8.536;2023-09-08T10:20:25;5.30;;;1.98;;
19173;SDS011;9719;49.322;8.536;2023-09-08T10:25:28;2.80;;;1.98;;
19173;SDS011;9719;49.322;8.536;2023-09-08T10:30:34;2.72;;;2.10;;
19173;SDS011;9719;49.322;8.536;2023-09-08T10:35:37;2.40;;;2.30;;
19173;SDS011;9719;49.322;8.536;2023-09-08T10:40:39;2.90;;;2.42;;
19173;SDS011;9719;49.322;8.536;2023-09-08T10:45:42;3.05;;;2.20;;
19173;SDS011;9719;49.322;8.536;2023-09-08T10:50:44;2.58;;;2.38;;
19173;SDS011;9719;49.322;8.536;2023-09-08T10:55:46;2.13;;;1.92;;
19173;SDS011;9719;49.322;8.536;2023-09-08T11:00:52;2.47;;;2.00;;
19173;SDS011;9719;49.322;8.536;2023-09-08T11:05:57;2.53;;;2.33;;
19173;SDS011;9719;49.322;8.536;2023-09-08T11:10:59;2.05;;;1.95;;
19173;SDS011;9719;49.322;8.536;2023-09-08T11:16:03;3.28;;;2.15;;
19173;SDS011;9719;49.322;8.536;2023-09-08T11:21:06;2.58;;;2.38;;
19173;SDS011;9719;49.322;8.536;2023-09-08T11:26:09;2.97;;;2.17;;
19173;SDS011;9719;49.322;8.536;2023-09-08T11:31:14;2.38;;;2.22;;
19173;SDS011;9719;49.322;8.536;2023-09-08T11:36:17;2.53;;;2.10;;
19173;SDS011;9719;49.322;8.536;2023-09-08T11:41:19;2.50;;;2.30;;
19173;SDS011;9719;49.322;8.536;2023-09-08T11:46:25;3.60;;;2.80;;
19173;SDS011;9719;49.322;8.536;2023-09-08T11:51:28;2.65;;;2.17;;
19173;SDS011;9719;49.322;8.536;2023-09-08T11:56:30;3.38;;;1.95;;
19173;SDS011;9719;49.322;8.536;2023-09-08T12:01:33;2.85;;;1.90;;
19173;SDS011;9719;49.322;8.536;2023-09-08T12:06:35;2.25;;;2.08;;
19173;SDS011;9719;49.322;8.536;2023-09-08T12:11:37;3.45;;;2.28;;
19173;SDS011;9719;49.322;8.536;2023-09-08T12:16:43;3.05;;;2.30;;
19173;SDS011;9719;49.322;8.536;2023-09-08T12:21:53;4.10;;;2.20;;
19173;SDS011;9719;49.322;8.536;2023-09-08T12:26:56;1.95;;;1.85;;
19173;SDS011;9719;49.322;8.536;2023-09-08T12:31:59;3.15;;;2.90;;
19173;SDS011;9719;49.322;8.536;2023-09-08T12:37:02;2.45;;;2.25;;
19173;SDS011;9719;49.322;8.536;2023-09-08T12:42:07;3.63;;;2.55;;
19173;SDS011;9719;49.322;8.536;2023-09-08T12:47:10;2.10;;;1.90;;
19173;SDS011;9719;49.322;8.536;2023-09-08T12:52:13;3.33;;;2.60;;
19173;SDS011;9719;49.322;8.536;2023-09-08T12:57:14;2.10;;;1.90;;
19173;SDS011;9719;49.322;8.536;2023-09-08T13:02:17;2.90;;;2.63;;
19173;SDS011;9719;49.322;8.536;2023-09-08T13:07:19;2.03;;;1.88;;
19173;SDS011;9719;49.322;8.536;2023-09-08T13:12:21;1.83;;;1.73;;
19173;SDS011;9719;49.322;8.536;2023-09-08T13:17:24;1.70;;;1.60;;
19173;SDS011;9719;49.322;8.536;2023-09-08T13:22:26;2.63;;;1.85;;
19173;SDS011;9719;49.322;8.536;2023-09-08T13:27:27;2.10;;;1.90;;
19173;SDS011;9719;49.322;8.536;2023-09-08T13:32:30;4.00;;;2.28;;
19173;SDS011;9719;49.322;8.536;2023-09-08T13:37:32;3.10;;;2.33;;
19173;SDS011;9719;49.322;8.536;2023-09-08T13:42:34;1.88;;;1.77;;
19173;SDS011;9719;49.322;8.536;2023-09-08T13:47:37;2.72;;;2.33;;
19173;SDS011;9719;49.322;8.536;2023-09-08T13:52:39;2.33;;;2.00;;
19173;SDS011;9719;49.322;8.536;2023-09-08T13:57:41;2.45;;;2.25;;
19173;SDS011;9719;49.322;8.536;2023-09-08T14:02:44;3.05;;;2.10;;
19173;SDS011;9719;49.322;8.536;2023-09-08T14:07:46;2.70;;;2.10;;
19173;SDS011;9719;49.322;8.536;2023-09-08T14:12:47;3.03;;;2.00;;
19173;SDS011;9719;49.322;8.536;2023-09-08T14:17:50;2.55;;;2.28;;
19173;SDS011;9719;49.322;8.536;2023-09-08T14:22:52;3.03;;;1.98;;
19173;SDS011;9719;49.322;8.536;2023-09-08T14:27:54;2.00;;;1.83;;
19173;SDS011;9719;49.322;8.536;2023-09-08T14:32:57;2.67;;;2.10;;
19173;SDS011;9719;49.322;8.536;2023-09-08T14:37:59;2.25;;;1.65;;
19173;SDS011;9719;49.322;8.536;2023-09-08T14:43:01;1.98;;;1.83;;
19173;SDS011;9719;49.322;8.536;2023-09-08T14:48:04;3.45;;;2.17;;
19173;SDS011;9719;49.322;8.536;2023-09-08T14:53:07;4.15;;;1.88;;
19173;SDS011;9719;49.322;8.536;2023-09-08T14:58:08;2.13;;;1.70;;
19173;SDS011;9719;49.322;8.536;2023-09-08T15:03:12;2.25;;;1.90;;
19173;SDS011;9719;49.322;8.536;2023-09-08T15:08:14;2.75;;;2.38;;
19173;SDS011;9719;49.322;8.536;2023-09-08T15:13:16;2.42;;;1.90;;
19173;SDS011;9719;49.322;8.536;2023-09-08T15:18:19;1.85;;;1.75;;
19173;SDS011;9719;49.322;8.536;2023-09-08T15:23:23;4.68;;;2.03;;
19173;SDS011;9719;49.322;8.536;2023-09-08T15:28:25;2.50;;;1.98;;
19173;SDS011;9719;49.322;8.536;2023-09-08T15:33:28;2.08;;;1.88;;
19173;SDS011;9719;49.322;8.536;2023-09-08T15:38:30;2.50;;;2.13;;
19173;SDS011;9719;49.322;8.536;2023-09-08T15:43:31;2.85;;;1.80;;
19173;SDS011;9719;49.322;8.536;2023-09-08T15:48:35;2.13;;;1.83;;
19173;SDS011;9719;49.322;8.536;2023-09-08T15:53:38;2.38;;;2.08;;
19173;SDS011;9719;49.322;8.536;2023-09-08T15:58:40;2.25;;;2.05;;
19173;SDS011;9719;49.322;8.536;2023-09-08T16:03:44;1.85;;;1.75;;
19173;SDS011;9719;49.322;8.536;2023-09-08T16:08:46;2.80;;;1.90;;
19173;SDS011;9719;49.322;8.536;2023-09-08T16:13:48;1.85;;;1.60;;
19173;SDS011;9719;49.322;8.536;2023-09-08T16:18:51;2.75;;;2.22;;
19173;SDS011;9719;49.322;8.536;2023-09-08T16:23:53;2.33;;;2.13;;
19173;SDS011;9719;49.322;8.536;2023-09-08T16:28:55;2.47;;;2.28;;
19173;SDS011;9719;49.322;8.536;2023-09-08T16:33:58;2.22;;;2.03;;
19173;SDS011;9719;49.322;8.536;2023-09-08T16:39:00;3.00;;;2.08;;
19173;SDS011;9719;49.322;8.536;2023-09-08T16:44:02;5.97;;;5.43;;
19173;SDS011;9719;49.322;8.536;2023-09-08T16:49:05;2.90;;;2.55;;
19173;SDS011;9719;49.322;8.536;2023-09-08T16:54:07;2.53;;;1.80;;
19173;SDS011;9719;49.322;8.536;2023-09-08T16:59:09;2.10;;;1.90;;
19173;SDS011;9719;49.322;8.536;2023-09-08T17:04:12;3.25;;;2.28;;
19173;SDS011;9719;49.322;8.536;2023-09-08T17:09:13;2.95;;;2.45;;
19173;SDS011;9719;49.322;8.536;2023-09-08T17:14:15;2.28;;;2.08;;
19173;SDS011;9719;49.322;8.536;2023-09-08T17:19:18;2.13;;;1.92;;
19173;SDS011;9719;49.322;8.536;2023-09-08T17:24:20;2.47;;;2.28;;
19173;SDS011;9719;49.322;8.536;2023-09-08T17:29:22;2.20;;;2.00;;
19173;SDS011;9719;49.322;8.536;2023-09-08T17:34:25;3.03;;;2.13;;
19173;SDS011;9719;49.322;8.536;2023-09-08T17:39:27;3.05;;;2.10;;
19173;SDS011;9719;49.322;8.536;2023-09-08T17:44:29;2.50;;;2.30;;
19173;SDS011;9719;49.322;8.536;2023-09-08T17:49:32;2.20;;;2.00;;
19173;SDS011;9719;49.322;8.536;2023-09-08T17:54:35;2.30;;;1.63;;
19173;SDS011;9719;49.322;8.536;2023-09-08T17:59:36;4.38;;;2.80;;
19173;SDS011;9719;49.322;8.536;2023-09-08T18:04:41;2.85;;;2.30;;
19173;SDS011;9719;49.322;8.536;2023-09-08T18:09:43;2.90;;;2.15;;
19173;SDS011;9719;49.322;8.536;2023-09-08T18:14:44;2.45;;;2.25;;
19173;SDS011;9719;49.322;8.536;2023-09-08T18:19:47;2.35;;;2.15;;
19173;SDS011;9719;49.322;8.536;2023-09-08T18:24:49;2.47;;;2.17;;
19173;SDS011;9719;49.322;8.536;2023-09-08T18:29:51;2.85;;;2.30;;
19173;SDS011;9719;49.322;8.536;2023-09-08T18:34:54;5.05;;;2.92;;
19173;SDS011;9719;49.322;8.536;2023-09-08T18:39:56;2.90;;;2.65;;
19173;SDS011;9719;49.322;8.536;2023-09-08T18:44:57;3.35;;;2.47;;
19173;SDS011;9719;49.322;8.536;2023-09-08T18:50:00;3.47;;;2.47;;
19173;SDS011;9719;49.322;8.536;2023-09-08T18:55:02;3.25;;;2.50;;
19173;SDS011;9719;49.322;8.536;2023-09-08T19:00:05;3.22;;;2.75;;
19173;SDS011;9719;49.322;8.536;2023-09-08T19:05:09;2.88;;;2.38;;
19173;SDS011;9719;49.322;8.536;2023-09-08T19:10:11;3.38;;;2.65;;
19173;SDS011;9719;49.322;8.536;2023-09-08T19:15:13;2.85;;;2.60;;
19173;SDS011;9719;49.322;8.536;2023-09-08T19:20:17;5.55;;;3.22;;
19173;SDS011;9719;49.322;8.536;2023-09-08T19:25:19;4.18;;;2.92;;
19173;SDS011;9719;49.322;8.536;2023-09-08T19:30:21;3.15;;;2.63;;
19173;SDS011;9719;49.322;8.536;2023-09-08T19:35:24;4.97;;;2.90;;
19173;SDS011;9719;49.322;8.536;2023-09-08T19:40:26;4.00;;;2.72;;
19173;SDS011;9719;49.322;8.536;2023-09-08T19:45:28;4.18;;;3.33;;
19173;SDS011;9719;49.322;8.536;2023-09-08T19:50:32;3.40;;;3.10;;
19173;SDS011;9719;49.322;8.536;2023-09-08T19:55:34;4.75;;;4.10;;
19173;SDS011;9719;49.322;8.536;2023-09-08T20:00:37;4.63;;;4.22;;
19173;SDS011;9719;49.322;8.536;2023-09-08T20:05:42;8.85;;;4.30;;
19173;SDS011;9719;49.322;8.536;2023-09-08T20:10:49;5.43;;;4.07;;
19173;SDS011;9719;49.322;8.536;2023-09-08T20:15:58;3.72;;;3.42;;
19173;SDS011;9719;49.322;8.536;2023-09-08T20:21:01;4.18;;;3.63;;
19173;SDS011;9719;49.322;8.536;2023-09-08T20:26:04;3.83;;;3.50;;
19173;SDS011;9719;49.322;8.536;2023-09-08T20:31:06;4.07;;;3.78;;
19173;SDS011;9719;49.322;8.536;2023-09-08T20:36:10;5.90;;;4.43;;
19173;SDS011;9719;49.322;8.536;2023-09-08T20:41:12;3.67;;;3.15;;
19173;SDS011;9719;49.322;8.536;2023-09-08T20:46:14;6.38;;;3.83;;
19173;SDS011;9719;49.322;8.536;2023-09-08T20:51:17;6.35;;;4.22;;
19173;SDS011;9719;49.322;8.536;2023-09-08T20:56:19;5.05;;;3.85;;
19173;SDS011;9719;49.322;8.536;2023-09-08T21:01:21;5.03;;;3.78;;
19173;SDS011;9719;49.322;8.536;2023-09-08T21:06:24;5.32;;;4.55;;
19173;SDS011;9719;49.322;8.536;2023-09-08T21:11:26;9.30;;;3.58;;
19173;SDS011;9719;49.322;8.536;2023-09-08T21:16:28;9.30;;;4.30;;
19173;SDS011;9719;49.322;8.536;2023-09-08T21:21:31;4.40;;;4.00;;
19173;SDS011;9719;49.322;8.536;2023-09-08T21:26:33;5.00;;;4.38;;
19173;SDS011;9719;49.322;8.536;2023-09-08T21:31:34;6.20;;;4.18;;
19173;SDS011;9719;49.322;8.536;2023-09-08T21:36:37;4.30;;;3.90;;
19173;SDS011;9719;49.322;8.536;2023-09-08T21:41:40;3.70;;;3.38;;
19173;SDS011;9719;49.322;8.536;2023-09-08T21:46:41;4.57;;;4.18;;
19173;SDS011;9719;49.322;8.536;2023-09-08T21:51:44;5.80;;;3.25;;
19173;SDS011;9719;49.322;8.536;2023-09-08T21:56:47;4.53;;;4.03;;
19173;SDS011;9719;49.322;8.536;2023-09-08T22:01:49;4.40;;;3.67;;
19173;SDS011;9719;49.322;8.536;2023-09-08T22:06:52;3.25;;;2.92;;
19173;SDS011;9719;49.322;8.536;2023-09-08T22:11:54;3.90;;;3.22;;
19173;SDS011;9719;49.322;8.536;2023-09-08T22:16:56;3.40;;;3.10;;
19173;SDS011;9719;49.322;8.536;2023-09-08T22:21:59;4.60;;;3.72;;
19173;SDS011;9719;49.322;8.536;2023-09-08T22:27:00;4.50;;;3.42;;
19173;SDS011;9719;49.322;8.536;2023-09-08T22:32:04;4.30;;;3.78;;
19173;SDS011;9719;49.322;8.536;2023-09-08T22:37:07;6.05;;;3.50;;
19173;SDS011;9719;49.322;8.536;2023-09-08T22:42:09;4.13;;;3.58;;
19173;SDS011;9719;49.322;8.536;2023-09-08T22:47:10;7.25;;;4.18;;
19173;SDS011;9719;49.322;8.536;2023-09-08T22:52:13;5.32;;;4.78;;
19173;SDS011;9719;49.322;8.536;2023-09-08T22:57:15;4.38;;;3.78;;
19173;SDS011;9719;49.322;8.536;2023-09-08T23:02:17;5.45;;;3.45;;
19173;SDS011;9719;49.322;8.536;2023-09-08T23:07:20;3.80;;;3.50;;
19173;SDS011;9719;49.322;8.536;2023-09-08T23:12:22;5.95;;;5.30;;
19173;SDS011;9719;49.322;8.536;2023-09-08T23:17:24;4.10;;;3.28;;
19173;SDS011;9719;49.322;8.536;2023-09-08T23:22:27;4.05;;;3.65;;
19173;SDS011;9719;49.322;8.536;2023-09-08T23:27:28;6.13;;;3.63;;
19173;SDS011;9719;49.322;8.536;2023-09-08T23:32:30;4.28;;;3.88;;
19173;SDS011;9719;49.322;8.536;2023-09-08T23:37:33;4.03;;;3.58;;
19173;SDS011;9719;49.322;8.536;2023-09-08T23:42:35;6.03;;;4.20;;
19173;SDS011;9719;49.322;8.536;2023-09-08T23:47:37;5.70;;;4.10;;
19173;SDS011;9719;49.322;8.536;2023-09-08T23:52:40;4.47;;;4.07;;
19173;SDS011;9719;49.322;8.536;2023-09-08T23:57:41;3.45;;;3.10;;
